createdAt,value
2022-11-16T00:01:09.511Z,31.80
2022-11-16T00:03:36.155Z,31.70
2022-11-16T00:06:07.724Z,30.87
2022-11-16T00:08:37.002Z,34.20
2022-11-16T00:11:08.372Z,31.57
2022-11-16T00:13:36.013Z,32.17
2022-11-16T00:16:03.418Z,32.90
2022-11-16T00:18:30.221Z,34.03
2022-11-16T00:20:57.359Z,28.70
2022-11-16T00:23:23.828Z,30.80
2022-11-16T00:25:50.515Z,32.03
2022-11-16T00:28:17.442Z,28.17
2022-11-16T00:30:43.921Z,31.73
2022-11-16T00:33:15.376Z,27.73
2022-11-16T00:35:41.936Z,31.27
2022-11-16T00:38:08.444Z,30.13
2022-11-16T00:40:34.960Z,28.30
2022-11-16T00:43:01.459Z,30.30
2022-11-16T00:45:27.943Z,27.57
2022-11-16T00:48:00.169Z,28.60
2022-11-16T00:50:27.305Z,30.67
2022-11-16T00:52:54.432Z,28.20
2022-11-16T00:55:20.920Z,29.90
2022-11-16T00:57:47.426Z,29.73
2022-11-16T01:00:14.620Z,27.90
2022-11-16T01:02:41.417Z,27.83
2022-11-16T01:05:09.653Z,30.60
2022-11-16T01:07:37.721Z,28.57
2022-11-16T01:10:07.076Z,28.10
2022-11-16T01:12:33.641Z,28.73
2022-11-16T01:15:00.106Z,29.80
2022-11-16T01:17:26.569Z,30.10
2022-11-16T01:19:53.616Z,28.87
2022-11-16T01:22:20.177Z,28.60
2022-11-16T01:24:46.934Z,27.17
2022-11-16T01:27:13.886Z,29.77
2022-11-16T01:29:40.365Z,28.17
2022-11-16T01:32:06.828Z,27.07
2022-11-16T01:34:33.301Z,27.10
2022-11-16T01:36:59.752Z,28.90
2022-11-16T01:39:26.219Z,28.30
2022-11-16T01:41:52.686Z,28.47
2022-11-16T01:44:31.435Z,28.63
2022-11-16T01:47:03.493Z,29.10
2022-11-16T01:49:33.308Z,27.93
2022-11-16T01:52:03.648Z,32.97
2022-11-16T01:54:31.222Z,27.37
2022-11-16T01:57:00.996Z,32.00
2022-11-16T01:59:28.508Z,28.83
2022-11-16T02:01:55.467Z,28.77
2022-11-16T02:04:21.956Z,31.93
2022-11-16T02:07:16.192Z,30.10
2022-11-16T02:10:04.182Z,33.93
2022-11-16T02:12:52.320Z,30.13
2022-11-16T02:15:18.835Z,30.90
2022-11-16T02:18:03.975Z,32.53
2022-11-16T02:20:44.548Z,32.20
2022-11-16T02:23:26.011Z,32.57
2022-11-16T02:26:27.121Z,31.90
2022-11-16T02:29:05.500Z,33.00
2022-11-16T02:31:38.104Z,36.77
2022-11-16T02:34:06.141Z,36.67
2022-11-16T02:36:34.081Z,39.30
2022-11-16T02:39:04.495Z,38.50
2022-11-16T02:41:34.030Z,38.40
2022-11-16T02:44:04.408Z,34.60
2022-11-16T02:46:34.303Z,39.20
2022-11-16T02:49:02.844Z,36.57
2022-11-16T02:51:29.846Z,36.67
2022-11-16T02:54:03.188Z,36.60
2022-11-16T02:56:30.250Z,44.33
2022-11-16T02:58:58.338Z,39.07
2022-11-16T03:01:32.878Z,42.77
2022-11-16T03:04:14.109Z,40.90
2022-11-16T03:06:41.772Z,39.17
2022-11-16T03:09:16.531Z,43.30
2022-11-16T03:12:00.941Z,38.43
2022-11-16T03:14:34.062Z,44.80
2022-11-16T03:17:01.641Z,38.70
2022-11-16T03:19:41.866Z,36.23
2022-11-16T03:22:20.808Z,40.27
2022-11-16T03:24:47.573Z,42.13
2022-11-16T03:27:34.661Z,41.73
2022-11-16T03:30:05.701Z,42.37
2022-11-16T03:32:54.413Z,42.23
2022-11-16T03:35:29.732Z,42.27
2022-11-16T03:37:57.969Z,43.23
2022-11-16T03:40:25.724Z,38.47
2022-11-16T03:42:52.453Z,41.03
2022-11-16T03:45:19.524Z,38.83
2022-11-16T03:47:46.311Z,42.83
2022-11-16T03:50:12.947Z,43.10
2022-11-16T03:52:39.441Z,40.70
2022-11-16T03:55:06.112Z,42.43
2022-11-16T03:57:32.574Z,43.20
2022-11-16T03:59:59.066Z,43.27
2022-11-16T04:02:25.530Z,40.37
2022-11-16T04:05:10.901Z,40.77
2022-11-16T04:07:56.041Z,41.30
2022-11-16T04:10:41.267Z,43.40
2022-11-16T04:13:29.161Z,40.70
2022-11-16T04:16:14.251Z,44.53
2022-11-16T04:18:59.584Z,42.90
2022-11-16T04:21:47.818Z,44.30
2022-11-16T04:24:20.710Z,43.83
2022-11-16T04:27:09.844Z,43.77
2022-11-16T04:29:36.419Z,40.10
2022-11-16T04:32:21.469Z,44.13
2022-11-16T04:35:06.809Z,42.60
2022-11-16T04:37:51.874Z,42.83
2022-11-16T04:40:23.350Z,42.40
2022-11-16T04:42:54.448Z,45.77
2022-11-16T04:45:40.100Z,46.03
2022-11-16T04:48:07.059Z,44.23
2022-11-16T04:50:33.954Z,46.90
2022-11-16T04:53:00.834Z,41.53
2022-11-16T04:55:27.312Z,43.60
2022-11-16T04:57:53.812Z,43.73
2022-11-16T05:00:20.669Z,45.87
2022-11-16T05:02:47.414Z,46.17
2022-11-16T05:05:14.094Z,48.50
2022-11-16T05:07:40.659Z,46.23
2022-11-16T05:10:07.615Z,48.70
2022-11-16T05:12:34.790Z,46.97
2022-11-16T05:15:01.531Z,51.77
2022-11-16T05:17:28.506Z,52.53
2022-11-16T05:20:13.632Z,51.67
2022-11-16T05:22:40.159Z,54.07
2022-11-16T05:25:08.198Z,53.97
2022-11-16T05:27:34.989Z,53.50
2022-11-16T05:30:01.627Z,51.57
2022-11-16T05:32:28.286Z,55.17
2022-11-16T05:34:54.769Z,53.17
2022-11-16T05:37:21.283Z,57.33
2022-11-16T05:39:48.167Z,54.57
2022-11-16T05:42:14.601Z,58.43
2022-11-16T05:44:41.064Z,60.80
2022-11-16T05:47:07.492Z,53.63
2022-11-16T05:49:33.958Z,54.10
2022-11-16T05:52:00.435Z,52.03
2022-11-16T05:54:26.966Z,54.43
2022-11-16T05:56:54.273Z,45.87
2022-11-16T05:59:21.951Z,50.33
2022-11-16T06:01:48.960Z,49.13
2022-11-16T06:04:15.702Z,45.77
2022-11-16T06:06:43.437Z,44.07
2022-11-16T06:09:12.032Z,40.33
2022-11-16T06:11:38.848Z,39.60
2022-11-16T06:14:05.862Z,49.47
2022-11-16T06:16:32.391Z,42.77
2022-11-16T06:18:59.591Z,40.37
2022-11-16T06:21:26.187Z,41.90
2022-11-16T06:23:52.600Z,46.13
2022-11-16T06:26:19.052Z,40.97
2022-11-16T06:28:45.508Z,40.80
2022-11-16T06:31:11.966Z,46.70
2022-11-16T06:33:38.403Z,46.37
2022-11-16T06:36:05.264Z,45.87
2022-11-16T06:38:31.863Z,46.20
2022-11-16T06:40:59.234Z,44.87
2022-11-16T06:43:26.578Z,42.77
2022-11-16T06:45:55.582Z,43.37
2022-11-16T06:48:22.359Z,41.20
2022-11-16T06:50:49.965Z,43.37
2022-11-16T06:53:16.847Z,43.97
2022-11-16T06:58:10.118Z,41.97
2022-11-16T07:00:36.668Z,45.23
2022-11-16T07:03:03.927Z,39.43
2022-11-16T07:05:31.504Z,43.07
2022-11-16T07:07:58.091Z,43.50
2022-11-16T07:10:25.178Z,43.63
2022-11-16T07:12:51.638Z,41.80
2022-11-16T07:15:18.276Z,39.87
2022-11-16T07:17:44.781Z,44.90
2022-11-16T07:20:12.153Z,45.07
2022-11-16T07:22:38.719Z,43.77
2022-11-16T07:25:05.587Z,45.07
2022-11-16T07:27:32.030Z,50.20
2022-11-16T07:29:58.476Z,44.23
2022-11-16T07:32:24.966Z,44.50
2022-11-16T07:34:51.456Z,45.53
2022-11-16T07:37:17.904Z,46.30
2022-11-16T07:39:45.605Z,44.97
2022-11-16T07:42:12.366Z,45.30
2022-11-16T07:44:39.264Z,41.07
2022-11-16T07:47:06.136Z,42.00
2022-11-16T07:49:32.586Z,41.60
2022-11-16T07:51:59.119Z,42.40
2022-11-16T07:54:25.581Z,43.83
2022-11-16T07:56:54.883Z,44.97
2022-11-16T07:59:21.321Z,42.40
2022-11-16T08:01:48.362Z,43.00
2022-11-16T08:04:17.423Z,41.13
2022-11-16T08:06:44.679Z,42.37
2022-11-16T08:09:11.186Z,40.90
2022-11-16T08:11:38.090Z,42.20
2022-11-16T08:14:04.723Z,40.90
2022-11-16T08:16:33.359Z,39.00
2022-11-16T08:19:03.455Z,40.83
2022-11-16T08:21:29.934Z,36.83
2022-11-16T08:23:58.701Z,42.57
2022-11-16T08:26:25.705Z,43.70
2022-11-16T08:28:53.871Z,46.77
2022-11-16T08:31:27.854Z,48.30
2022-11-16T08:33:54.656Z,46.67
2022-11-16T08:36:21.500Z,53.27
2022-11-16T08:38:49.593Z,53.87
2022-11-16T08:41:17.323Z,51.53
2022-11-16T08:43:46.499Z,54.03
2022-11-16T08:46:13.654Z,57.90
2022-11-16T08:48:40.188Z,52.60
2022-11-16T08:51:19.992Z,50.73
2022-11-16T08:53:48.453Z,52.60
2022-11-16T08:56:16.332Z,50.30
2022-11-16T08:58:47.385Z,44.77
2022-11-16T09:01:16.929Z,42.00
2022-11-16T09:03:44.160Z,44.40
2022-11-16T09:06:11.420Z,39.60
2022-11-16T09:08:39.397Z,41.67
2022-11-16T09:11:07.197Z,39.10
2022-11-16T09:13:33.828Z,40.30
2022-11-16T09:16:01.653Z,43.07
2022-11-16T09:18:28.775Z,44.43
2022-11-16T09:20:55.641Z,39.37
2022-11-16T09:23:25.487Z,36.47
2022-11-16T09:25:52.922Z,38.03
2022-11-16T09:28:20.011Z,35.40
2022-11-16T09:30:49.198Z,41.57
2022-11-16T09:33:15.806Z,37.33
2022-11-16T09:35:42.387Z,37.13
2022-11-16T09:38:15.976Z,34.60
2022-11-16T09:40:47.005Z,37.83
2022-11-16T09:43:58.614Z,39.40
2022-11-16T09:46:39.531Z,34.90
2022-11-16T09:49:17.165Z,35.20
2022-11-16T09:51:47.385Z,38.33
2022-11-16T09:54:24.994Z,37.43
2022-11-16T09:56:54.459Z,34.87
2022-11-16T09:59:26.343Z,33.70
2022-11-16T10:01:57.184Z,34.70
2022-11-16T10:04:37.098Z,35.80
2022-11-16T10:07:18.203Z,37.73
2022-11-16T10:09:45.237Z,35.43
2022-11-16T10:12:20.789Z,34.87
2022-11-16T10:15:07.159Z,34.60
2022-11-16T10:17:43.593Z,40.00
2022-11-16T10:20:31.518Z,40.43
2022-11-16T10:22:58.381Z,43.80
2022-11-16T10:25:58.847Z,43.20
2022-11-16T10:28:28.462Z,54.23
2022-11-16T10:31:02.132Z,44.87
2022-11-16T10:33:35.586Z,53.17
2022-11-16T10:36:21.517Z,52.67
2022-11-16T10:38:48.302Z,55.47
2022-11-16T10:41:25.402Z,54.33
2022-11-16T10:43:51.985Z,60.60
2022-11-16T10:49:04.239Z,58.90
2022-11-16T10:51:30.684Z,57.67
2022-11-16T10:53:57.262Z,55.77
2022-11-16T10:56:40.449Z,60.63
2022-11-16T10:59:28.238Z,54.27
2022-11-16T11:01:54.673Z,57.77
2022-11-16T11:04:28.148Z,54.90
2022-11-16T11:06:56.650Z,57.93
2022-11-16T11:09:34.571Z,56.40
2022-11-16T11:12:34.480Z,55.03
2022-11-16T11:15:27.079Z,55.13
2022-11-16T11:18:15.605Z,51.13
2022-11-16T11:20:45.310Z,46.57
2022-11-16T11:23:15.480Z,50.07
2022-11-16T11:25:50.061Z,50.77
2022-11-16T11:28:19.445Z,49.00
2022-11-16T11:31:17.239Z,46.40
2022-11-16T11:33:49.980Z,46.10
2022-11-16T11:36:20.826Z,43.20
2022-11-16T11:39:04.250Z,44.97
2022-11-16T11:41:37.003Z,46.97
2022-11-16T11:44:23.732Z,47.30
2022-11-16T11:47:42.325Z,44.67
2022-11-16T11:49:50.061Z,43.90
2022-11-16T11:52:39.242Z,45.50
2022-11-16T11:55:07.452Z,41.77
2022-11-16T11:57:38.550Z,37.90
2022-11-16T12:00:06.612Z,37.30
2022-11-16T12:03:01.005Z,39.83
2022-11-16T12:05:45.975Z,35.67
2022-11-16T12:08:24.754Z,32.07
2022-11-16T12:10:53.795Z,34.07
2022-11-16T12:13:26.380Z,33.67
2022-11-16T12:16:01.880Z,34.73
2022-11-16T12:18:56.240Z,35.77
2022-11-16T12:21:35.565Z,34.03
2022-11-16T12:24:43.397Z,33.73
2022-11-16T12:27:18.279Z,33.60
2022-11-16T12:30:23.631Z,30.33
2022-11-16T12:33:00.671Z,32.57
2022-11-16T12:35:44.777Z,31.70
2022-11-16T12:38:20.520Z,30.43
2022-11-16T12:41:16.865Z,29.90
2022-11-16T12:44:12.937Z,31.30
2022-11-16T12:46:54.557Z,27.53
2022-11-16T12:49:33.214Z,26.83
2022-11-16T12:52:37.236Z,28.37
2022-11-16T12:55:26.811Z,32.70
2022-11-16T12:58:03.019Z,29.20
2022-11-16T13:00:39.860Z,30.20
2022-11-16T13:03:12.455Z,32.07
2022-11-16T13:05:41.891Z,28.20
2022-11-16T13:08:19.522Z,31.17
2022-11-16T13:10:48.712Z,28.90
2022-11-16T13:13:35.926Z,29.13
2022-11-16T13:16:10.127Z,29.03
2022-11-16T13:18:40.565Z,29.87
2022-11-16T13:21:22.138Z,27.10
2022-11-16T13:24:08.514Z,29.20
2022-11-16T13:26:50.960Z,28.27
2022-11-16T13:29:34.547Z,31.60
2022-11-16T13:32:16.795Z,26.23
2022-11-16T13:34:43.518Z,27.00
2022-11-16T13:37:38.126Z,29.10
2022-11-16T13:40:04.883Z,30.23
2022-11-16T13:42:33.508Z,26.30
2022-11-16T13:45:09.087Z,24.67
2022-11-16T13:47:36.817Z,27.30
2022-11-16T13:50:06.274Z,26.90
2022-11-16T13:53:36.347Z,27.50
2022-11-16T13:55:36.042Z,24.30
2022-11-16T13:58:04.615Z,25.27
2022-11-16T14:00:33.847Z,27.30
2022-11-16T14:03:15.559Z,24.33
2022-11-16T14:05:52.446Z,24.70
2022-11-16T14:08:18.828Z,22.73
2022-11-16T14:10:45.249Z,24.47
2022-11-16T14:13:30.111Z,20.67
2022-11-16T14:16:14.905Z,23.87
2022-11-16T14:18:42.659Z,22.70
2022-11-16T14:21:17.145Z,21.47
2022-11-16T14:24:02.273Z,20.23
2022-11-16T14:26:47.086Z,19.60
2022-11-16T14:29:28.538Z,20.33
2022-11-16T14:31:59.248Z,20.13
2022-11-16T14:34:46.718Z,19.37
2022-11-16T14:37:30.221Z,16.93
2022-11-16T14:40:09.037Z,20.20
2022-11-16T14:43:15.287Z,19.07
2022-11-16T14:45:47.533Z,20.57
2022-11-16T14:48:17.250Z,19.17
2022-11-16T14:51:05.718Z,18.40
2022-11-16T14:53:33.845Z,18.67
2022-11-16T14:56:12.288Z,21.13
2022-11-16T14:58:39.252Z,20.50
2022-11-16T15:01:14.526Z,17.03
2022-11-16T15:03:55.416Z,18.50
2022-11-16T15:06:22.303Z,16.93
2022-11-16T15:08:51.540Z,16.97
2022-11-16T15:11:59.818Z,20.60
2022-11-16T15:14:29.666Z,19.27
2022-11-16T15:16:57.342Z,21.03
2022-11-16T15:19:24.384Z,15.53
2022-11-16T15:21:57.135Z,15.30
2022-11-16T15:24:32.220Z,18.10
2022-11-16T15:27:09.238Z,16.03
2022-11-16T15:29:36.084Z,15.40
2022-11-16T15:32:02.698Z,17.83
2022-11-16T15:34:29.176Z,15.93
2022-11-16T15:36:55.603Z,15.07
2022-11-16T15:39:24.558Z,16.20
2022-11-16T15:41:51.426Z,17.33
2022-11-16T15:44:20.359Z,14.80
2022-11-16T15:46:52.232Z,18.17
2022-11-16T15:49:29.297Z,14.10
2022-11-16T15:51:59.775Z,15.77
2022-11-16T15:54:51.670Z,14.40
2022-11-16T15:57:19.961Z,16.23
2022-11-16T15:59:49.515Z,15.70
2022-11-16T16:02:18.971Z,15.80
2022-11-16T16:04:45.448Z,17.90
2022-11-16T16:07:13.459Z,14.33
2022-11-16T16:09:40.660Z,13.53
2022-11-16T16:12:21.933Z,13.93
2022-11-16T16:14:49.476Z,13.43
2022-11-16T16:17:26.696Z,12.20
2022-11-16T16:20:19.842Z,14.90
2022-11-16T16:22:46.391Z,15.53
2022-11-16T16:25:34.014Z,15.73
2022-11-16T16:28:00.504Z,13.73
2022-11-16T16:30:28.825Z,14.63
2022-11-16T16:32:55.318Z,13.43
2022-11-16T16:35:23.965Z,12.57
2022-11-16T16:37:52.226Z,13.83
2022-11-16T16:40:18.937Z,13.50
2022-11-16T16:42:48.757Z,11.43
2022-11-16T16:45:19.652Z,14.27
2022-11-16T16:47:46.357Z,12.63
2022-11-16T16:50:12.912Z,11.47
2022-11-16T16:52:39.843Z,12.77
2022-11-16T16:55:06.636Z,13.20
2022-11-16T16:57:33.106Z,13.43
2022-11-16T16:59:59.673Z,10.17
2022-11-16T17:02:26.808Z,10.67
2022-11-16T17:04:53.325Z,9.53
2022-11-16T17:07:22.422Z,11.33
2022-11-16T17:09:49.041Z,9.77
2022-11-16T17:12:15.544Z,9.67
2022-11-16T17:14:42.139Z,10.37
2022-11-16T17:17:08.763Z,9.13
2022-11-16T17:19:35.309Z,8.50
2022-11-16T17:22:01.747Z,9.57
2022-11-16T17:24:28.244Z,11.83
2022-11-16T17:26:54.654Z,12.80
2022-11-16T17:29:21.093Z,12.70
2022-11-16T17:31:47.765Z,13.77
2022-11-16T17:34:14.599Z,13.97
2022-11-16T17:36:41.945Z,14.03
2022-11-16T17:39:08.532Z,12.63
2022-11-16T17:41:34.979Z,15.33
2022-11-16T17:44:01.443Z,13.40
2022-11-16T17:46:29.057Z,14.60
2022-11-16T17:48:56.010Z,12.77
2022-11-16T17:51:29.925Z,14.60
2022-11-16T17:53:56.397Z,14.27
2022-11-16T17:56:27.852Z,16.23
2022-11-16T17:58:55.352Z,15.53
2022-11-16T18:01:22.720Z,13.00
2022-11-16T18:03:49.246Z,219.67
2022-11-16T18:06:18.411Z,13.03
2022-11-16T18:08:45.246Z,18.00
2022-11-16T18:11:17.087Z,35.80
2022-11-16T18:13:44.703Z,12.57
2022-11-16T18:16:13.154Z,13.73
2022-11-16T18:18:40.743Z,9.80
2022-11-16T18:21:08.187Z,9.80
2022-11-16T18:23:35.512Z,10.93
2022-11-16T18:26:06.048Z,13.63
2022-11-16T18:28:32.483Z,18.47
2022-11-16T18:31:04.012Z,9.00
2022-11-16T18:33:30.712Z,8.57
2022-11-16T18:35:57.552Z,10.73
2022-11-16T18:38:24.009Z,9.43
2022-11-16T18:41:12.495Z,8.23
2022-11-16T18:43:39.728Z,8.33
2022-11-16T18:46:06.977Z,12.27
2022-11-16T18:48:33.483Z,12.47
2022-11-16T18:51:00.787Z,11.47
2022-11-16T18:53:27.838Z,7.67
2022-11-16T18:55:57.850Z,7.33
2022-11-16T18:58:49.302Z,8.00
2022-11-16T19:01:14.179Z,7.73
2022-11-16T19:03:40.938Z,7.30
2022-11-16T19:06:09.046Z,6.90
2022-11-16T19:08:40.439Z,7.93
2022-11-16T19:11:16.904Z,7.40
2022-11-16T19:13:44.248Z,8.07
2022-11-16T19:16:12.648Z,8.60
2022-11-16T19:19:02.200Z,7.77
2022-11-16T19:21:28.713Z,7.13
2022-11-16T19:23:56.158Z,6.33
2022-11-16T19:26:24.800Z,7.30
2022-11-16T19:28:52.218Z,7.50
2022-11-16T19:31:23.389Z,7.80
2022-11-16T19:34:00.732Z,8.10
2022-11-16T19:36:28.729Z,6.40
2022-11-16T19:38:55.641Z,8.40
2022-11-16T19:41:22.861Z,7.37
2022-11-16T19:43:52.507Z,7.23
2022-11-16T19:46:22.030Z,7.50
2022-11-16T19:48:49.585Z,7.10
2022-11-16T19:51:27.118Z,8.70
2022-11-16T19:53:53.940Z,8.37
2022-11-16T19:56:22.146Z,6.57
2022-11-16T19:58:48.936Z,5.77
2022-11-16T20:01:17.875Z,7.07
2022-11-16T20:03:45.593Z,7.87
2022-11-16T20:06:13.120Z,7.50
2022-11-16T20:08:41.032Z,7.00
2022-11-16T20:11:12.238Z,7.13
2022-11-16T20:13:38.862Z,6.47
2022-11-16T20:16:07.129Z,6.60
2022-11-16T20:18:33.616Z,7.67
2022-11-16T20:21:05.235Z,7.43
2022-11-16T20:23:35.889Z,6.83
2022-11-16T20:26:10.578Z,6.53
2022-11-16T20:28:38.291Z,8.87
2022-11-16T20:31:09.730Z,8.43
2022-11-16T20:33:36.744Z,6.97
2022-11-16T20:36:05.925Z,7.03
2022-11-16T20:38:34.315Z,7.50
2022-11-16T20:41:17.742Z,6.77
2022-11-16T20:43:45.863Z,6.60
2022-11-16T20:46:17.490Z,7.60
2022-11-16T20:48:45.084Z,6.67
2022-11-16T20:51:14.283Z,8.03
2022-11-16T20:53:42.999Z,6.73
2022-11-16T20:56:11.157Z,6.90
2022-11-16T20:58:40.095Z,6.70
2022-11-16T21:01:13.405Z,8.93
2022-11-16T21:03:40.655Z,8.20
2022-11-16T21:06:10.489Z,8.17
2022-11-16T21:08:38.070Z,8.03
2022-11-16T21:11:19.753Z,7.57
2022-11-16T21:14:05.472Z,7.77
2022-11-16T21:16:32.726Z,7.30
2022-11-16T21:19:00.503Z,8.07
2022-11-16T21:21:27.140Z,9.53
2022-11-16T21:23:54.900Z,6.67
2022-11-16T21:26:26.672Z,7.73
2022-11-16T21:28:53.695Z,7.40
2022-11-16T21:31:25.395Z,8.03
2022-11-16T21:33:52.415Z,7.53
2022-11-16T21:36:20.762Z,8.87
2022-11-16T21:38:47.728Z,8.20
2022-11-16T21:41:15.660Z,9.03
2022-11-16T21:43:42.134Z,8.90
2022-11-16T21:46:13.321Z,8.50
2022-11-16T21:48:40.130Z,9.27
2022-11-16T21:51:08.977Z,9.13
2022-11-16T21:53:36.193Z,9.40
2022-11-16T21:56:03.096Z,10.60
2022-11-16T21:58:29.631Z,9.43
2022-11-16T22:00:57.404Z,9.30
2022-11-16T22:03:25.621Z,9.60
2022-11-16T22:06:19.805Z,9.37
2022-11-16T22:08:47.117Z,9.97
2022-11-16T22:11:14.554Z,9.23
2022-11-16T22:13:41.274Z,9.07
2022-11-16T22:16:11.969Z,8.40
2022-11-16T22:18:38.849Z,8.67
2022-11-16T22:21:10.839Z,7.80
2022-11-16T22:23:38.014Z,6.53
2022-11-16T22:26:20.197Z,6.63
2022-11-16T22:28:46.633Z,6.80
2022-11-16T22:31:14.734Z,6.90
2022-11-16T22:33:41.666Z,6.00
2022-11-16T22:36:09.997Z,6.20
2022-11-16T22:38:36.711Z,6.07
2022-11-16T22:41:03.289Z,6.10
2022-11-16T22:43:30.514Z,5.77
2022-11-16T22:46:01.706Z,5.17
2022-11-16T22:51:05.272Z,5.60
2022-11-16T22:53:31.919Z,6.23
2022-11-16T22:56:06.836Z,5.43
2022-11-16T22:58:33.725Z,3.97
2022-11-16T23:01:00.174Z,3.90
2022-11-16T23:03:26.649Z,3.90
2022-11-16T23:05:53.153Z,3.37
2022-11-16T23:08:24.722Z,3.60
2022-11-16T23:11:17.053Z,3.53
2022-11-16T23:14:02.338Z,3.50
2022-11-16T23:16:28.936Z,3.30
2022-11-16T23:18:55.887Z,3.20
2022-11-16T23:21:41.490Z,3.17
2022-11-16T23:24:31.205Z,3.17
2022-11-16T23:27:17.280Z,2.83
2022-11-16T23:29:43.756Z,3.00
2022-11-16T23:32:10.447Z,6.33
2022-11-16T23:34:36.871Z,3.07
2022-11-16T23:37:05.430Z,3.70
2022-11-16T23:39:31.898Z,3.00
2022-11-16T23:42:16.954Z,3.43
2022-11-16T23:44:43.428Z,3.03
2022-11-16T23:47:10.059Z,3.60
2022-11-16T23:49:36.497Z,2.60
2022-11-16T23:52:02.968Z,3.20
2022-11-16T23:54:29.416Z,4.63
2022-11-16T23:56:55.908Z,2.80
2022-11-16T23:59:22.371Z,2.90
